sensor_id;sensor_type;location;lat;lon;timestamp;pressure;altitude;pressure_sealevel;temperature;humidity
21781;BME280;52576;53.614;9.894;2023-07-20T00:00:21;100989.88;;;13.61;84.07
21781;BME280;52576;53.614;9.894;2023-07-20T00:02:24;100988.91;;;13.62;84.10
21781;BME280;52576;53.614;9.894;2023-07-20T00:04:26;100993.94;;;13.65;83.85
21781;BME280;52576;53.614;9.894;2023-07-20T00:06:29;100984.97;;;13.68;83.85
21781;BME280;52576;53.614;9.894;2023-07-20T00:08:32;100991.81;;;13.70;84.01
21781;BME280;52576;53.614;9.894;2023-07-20T00:10:35;100984.50;;;13.74;83.65
21781;BME280;52576;53.614;9.894;2023-07-20T00:12:39;100987.03;;;13.75;83.68
21781;BME280;52576;53.614;9.894;2023-07-20T00:14:42;100989.41;;;13.78;83.70
21781;BME280;52576;53.614;9.894;2023-07-20T00:16:45;100987.50;;;13.80;83.58
21781;BME280;52576;53.614;9.894;2023-07-20T00:18:51;100980.31;;;13.82;83.49
21781;BME280;52576;53.614;9.894;2023-07-20T00:20:54;100988.94;;;13.84;83.57
21781;BME280;52576;53.614;9.894;2023-07-20T00:22:57;100988.72;;;13.87;83.42
21781;BME280;52576;53.614;9.894;2023-07-20T00:25:00;100985.13;;;13.88;83.07
21781;BME280;52576;53.614;9.894;2023-07-20T00:27:04;100985.00;;;13.90;83.12
21781;BME280;52576;53.614;9.894;2023-07-20T00:29:09;100995.44;;;13.91;83.28
21781;BME280;52576;53.614;9.894;2023-07-20T00:31:12;100990.03;;;13.93;83.27
21781;BME280;52576;53.614;9.894;2023-07-20T00:33:17;100992.56;;;13.95;83.10
21781;BME280;52576;53.614;9.894;2023-07-20T00:35:20;100996.88;;;13.96;83.21
21781;BME280;52576;53.614;9.894;2023-07-20T00:37:25;100994.13;;;13.97;83.07
21781;BME280;52576;53.614;9.894;2023-07-20T00:39:28;101001.91;;;13.99;82.95
21781;BME280;52576;53.614;9.894;2023-07-20T00:41:31;100997.38;;;14.01;83.12
21781;BME280;52576;53.614;9.894;2023-07-20T00:43:34;100997.38;;;14.01;82.98
21781;BME280;52576;53.614;9.894;2023-07-20T00:45:39;100993.03;;;14.00;83.03
21781;BME280;52576;53.614;9.894;2023-07-20T00:47:42;100997.59;;;13.98;83.03
21781;BME280;52576;53.614;9.894;2023-07-20T00:49:46;100987.28;;;13.95;83.18
21781;BME280;52576;53.614;9.894;2023-07-20T00:51:49;100988.38;;;13.92;83.36
21781;BME280;52576;53.614;9.894;2023-07-20T00:53:52;100985.97;;;13.89;83.88
21781;BME280;52576;53.614;9.894;2023-07-20T00:55:56;100987.03;;;13.86;83.94
21781;BME280;52576;53.614;9.894;2023-07-20T00:57:59;100984.63;;;13.83;84.28
21781;BME280;52576;53.614;9.894;2023-07-20T01:00:03;100985.81;;;13.79;84.25
21781;BME280;52576;53.614;9.894;2023-07-20T01:02:08;100989.41;;;13.78;84.34
21781;BME280;52576;53.614;9.894;2023-07-20T01:04:11;100985.25;;;13.76;84.89
21781;BME280;52576;53.614;9.894;2023-07-20T01:06:24;100983.56;;;13.75;85.07
21781;BME280;52576;53.614;9.894;2023-07-20T01:08:33;100975.78;;;13.73;85.19
21781;BME280;52576;53.614;9.894;2023-07-20T01:10:43;100982.94;;;13.71;85.29
21781;BME280;52576;53.614;9.894;2023-07-20T01:12:50;100983.91;;;13.70;85.53
21781;BME280;52576;53.614;9.894;2023-07-20T01:14:54;100982.13;;;13.71;85.57
21781;BME280;52576;53.614;9.894;2023-07-20T01:16:57;100978.75;;;13.69;85.91
21781;BME280;52576;53.614;9.894;2023-07-20T01:19:01;100983.19;;;13.68;85.77
21781;BME280;52576;53.614;9.894;2023-07-20T01:21:07;100988.56;;;13.67;86.03
21781;BME280;52576;53.614;9.894;2023-07-20T01:23:26;100991.31;;;13.65;86.41
21781;BME280;52576;53.614;9.894;2023-07-20T01:25:44;100990.59;;;13.63;86.27
21781;BME280;52576;53.614;9.894;2023-07-20T01:28:17;100983.66;;;13.62;86.42
21781;BME280;52576;53.614;9.894;2023-07-20T01:30:46;100981.97;;;13.61;86.76
21781;BME280;52576;53.614;9.894;2023-07-20T01:32:55;100982.81;;;13.62;86.85
21781;BME280;52576;53.614;9.894;2023-07-20T01:34:59;100977.66;;;13.60;87.21
21781;BME280;52576;53.614;9.894;2023-07-20T01:37:05;100974.19;;;13.59;87.02
21781;BME280;52576;53.614;9.894;2023-07-20T01:39:10;100977.66;;;13.60;87.21
21781;BME280;52576;53.614;9.894;2023-07-20T01:41:14;100978.50;;;13.61;87.37
21781;BME280;52576;53.614;9.894;2023-07-20T01:43:18;100978.50;;;13.61;87.68
21781;BME280;52576;53.614;9.894;2023-07-20T01:45:21;100975.03;;;13.60;87.58
21781;BME280;52576;53.614;9.894;2023-07-20T01:47:24;100981.97;;;13.61;87.48
21781;BME280;52576;53.614;9.894;2023-07-20T01:49:28;100983.66;;;13.62;87.89
21781;BME280;52576;53.614;9.894;2023-07-20T01:51:31;100983.66;;;13.62;87.64
21781;BME280;52576;53.614;9.894;2023-07-20T01:53:34;100984.47;;;13.63;87.95
21781;BME280;52576;53.614;9.894;2023-07-20T01:55:38;100982.81;;;13.62;87.82
21781;BME280;52576;53.614;9.894;2023-07-20T01:57:41;100978.38;;;13.62;88.05
21781;BME280;52576;53.614;9.894;2023-07-20T01:59:44;100983.66;;;13.62;88.45
21781;BME280;52576;53.614;9.894;2023-07-20T02:01:47;100983.66;;;13.62;88.06
21781;BME280;52576;53.614;9.894;2023-07-20T02:03:50;100974.91;;;13.62;88.42
21781;BME280;52576;53.614;9.894;2023-07-20T02:05:55;100981.13;;;13.61;88.41
21781;BME280;52576;53.614;9.894;2023-07-20T02:08:00;100980.28;;;13.60;88.53
21781;BME280;52576;53.614;9.894;2023-07-20T02:10:03;100973.34;;;13.59;88.74
21781;BME280;52576;53.614;9.894;2023-07-20T02:12:07;100978.59;;;13.59;88.94
21781;BME280;52576;53.614;9.894;2023-07-20T02:14:10;100975.97;;;13.59;88.95
21781;BME280;52576;53.614;9.894;2023-07-20T02:16:13;100980.28;;;13.60;89.13
21781;BME280;52576;53.614;9.894;2023-07-20T02:18:16;100985.56;;;13.60;89.16
21781;BME280;52576;53.614;9.894;2023-07-20T02:20:19;100980.28;;;13.60;89.32
21781;BME280;52576;53.614;9.894;2023-07-20T02:22:24;100980.28;;;13.60;88.99
21781;BME280;52576;53.614;9.894;2023-07-20T02:24:27;100985.56;;;13.60;89.10
21781;BME280;52576;53.614;9.894;2023-07-20T02:26:30;100983.75;;;13.61;88.96
21781;BME280;52576;53.614;9.894;2023-07-20T02:28:33;100989.13;;;13.59;89.25
21781;BME280;52576;53.614;9.894;2023-07-20T02:30:37;100983.88;;;13.59;89.19
21781;BME280;52576;53.614;9.894;2023-07-20T02:32:41;100988.31;;;13.58;89.33
21781;BME280;52576;53.614;9.894;2023-07-20T02:34:47;100984.81;;;13.58;89.56
21781;BME280;52576;53.614;9.894;2023-07-20T02:36:50;100993.44;;;13.60;89.50
21781;BME280;52576;53.614;9.894;2023-07-20T02:38:55;100995.25;;;13.59;89.51
21781;BME280;52576;53.614;9.894;2023-07-20T02:40:58;100995.25;;;13.59;89.37
21781;BME280;52576;53.614;9.894;2023-07-20T02:43:01;100994.41;;;13.59;89.40
21781;BME280;52576;53.614;9.894;2023-07-20T02:45:05;101004.09;;;13.58;89.61
21781;BME280;52576;53.614;9.894;2023-07-20T02:47:08;100993.56;;;13.58;89.62
21781;BME280;52576;53.614;9.894;2023-07-20T02:49:11;101003.25;;;13.58;89.43
21781;BME280;52576;53.614;9.894;2023-07-20T02:51:15;100995.47;;;13.56;89.75
21781;BME280;52576;53.614;9.894;2023-07-20T02:57:03;100989.59;;;13.53;89.59
21781;BME280;52576;53.614;9.894;2023-07-20T02:59:06;100995.81;;;13.52;89.62
21781;BME280;52576;53.614;9.894;2023-07-20T03:01:08;100993.19;;;13.52;89.89
21781;BME280;52576;53.614;9.894;2023-07-20T03:03:11;100993.19;;;13.52;89.91
21781;BME280;52576;53.614;9.894;2023-07-20T03:05:15;100996.81;;;13.51;90.17
21781;BME280;52576;53.614;9.894;2023-07-20T03:07:18;100995.81;;;13.52;89.82
21781;BME280;52576;53.614;9.894;2023-07-20T03:09:22;101000.25;;;13.51;89.97
21781;BME280;52576;53.614;9.894;2023-07-20T03:11:25;101000.41;;;13.50;89.89
21781;BME280;52576;53.614;9.894;2023-07-20T03:13:29;101002.06;;;13.51;90.23
21781;BME280;52576;53.614;9.894;2023-07-20T03:15:32;101003.88;;;13.50;90.22
21781;BME280;52576;53.614;9.894;2023-07-20T03:17:35;101004.81;;;13.49;89.92
21781;BME280;52576;53.614;9.894;2023-07-20T03:19:39;101002.06;;;13.51;90.15
21781;BME280;52576;53.614;9.894;2023-07-20T03:21:42;101007.44;;;13.49;90.13
21781;BME280;52576;53.614;9.894;2023-07-20T03:23:45;101004.81;;;13.49;90.07
21781;BME280;52576;53.614;9.894;2023-07-20T03:25:49;101003.72;;;13.52;90.06
21781;BME280;52576;53.614;9.894;2023-07-20T03:27:52;100997.75;;;13.50;90.15
21781;BME280;52576;53.614;9.894;2023-07-20T03:29:56;101000.41;;;13.50;89.93
21781;BME280;52576;53.614;9.894;2023-07-20T03:31:59;100994.28;;;13.49;90.07
21781;BME280;52576;53.614;9.894;2023-07-20T03:34:03;101001.34;;;13.49;89.99
21781;BME280;52576;53.614;9.894;2023-07-20T03:36:06;101005.66;;;13.50;90.01
21781;BME280;52576;53.614;9.894;2023-07-20T03:38:10;101003.13;;;13.48;89.96
21781;BME280;52576;53.614;9.894;2023-07-20T03:40:13;101003.97;;;13.49;90.04
21781;BME280;52576;53.614;9.894;2023-07-20T03:42:16;101009.25;;;13.49;90.07
21781;BME280;52576;53.614;9.894;2023-07-20T03:44:19;101003.97;;;13.49;89.99
21781;BME280;52576;53.614;9.894;2023-07-20T03:46:24;101009.25;;;13.49;90.09
21781;BME280;52576;53.614;9.894;2023-07-20T03:48:27;101010.09;;;13.49;90.06
21781;BME280;52576;53.614;9.894;2023-07-20T03:50:31;101012.72;;;13.49;90.14
21781;BME280;52576;53.614;9.894;2023-07-20T03:52:34;101013.66;;;13.48;90.08
21781;BME280;52576;53.614;9.894;2023-07-20T03:54:37;101009.25;;;13.49;90.30
21781;BME280;52576;53.614;9.894;2023-07-20T03:56:40;101007.44;;;13.49;90.13
21781;BME280;52576;53.614;9.894;2023-07-20T03:58:43;101010.94;;;13.50;90.47
21781;BME280;52576;53.614;9.894;2023-07-20T04:00:48;101014.41;;;13.50;90.19
21781;BME280;52576;53.614;9.894;2023-07-20T04:02:53;101007.34;;;13.51;90.15
21781;BME280;52576;53.614;9.894;2023-07-20T04:04:56;101012.47;;;13.52;90.48
21781;BME280;52576;53.614;9.894;2023-07-20T04:06:59;101013.28;;;13.53;90.27
21781;BME280;52576;53.614;9.894;2023-07-20T04:09:03;101015.94;;;13.53;90.15
21781;BME280;52576;53.614;9.894;2023-07-20T04:11:06;101013.28;;;13.53;90.35
21781;BME280;52576;53.614;9.894;2023-07-20T04:13:09;101015.94;;;13.53;90.42
21781;BME280;52576;53.614;9.894;2023-07-20T04:15:13;101018.56;;;13.53;90.32
21781;BME280;52576;53.614;9.894;2023-07-20T04:17:17;101021.19;;;13.53;90.53
21781;BME280;52576;53.614;9.894;2023-07-20T04:19:21;101021.19;;;13.53;90.47
21781;BME280;52576;53.614;9.894;2023-07-20T04:21:27;101024.78;;;13.52;90.56
21781;BME280;52576;53.614;9.894;2023-07-20T04:23:30;101021.19;;;13.53;90.76
21781;BME280;52576;53.614;9.894;2023-07-20T04:25:34;101014.25;;;13.52;90.78
21781;BME280;52576;53.614;9.894;2023-07-20T04:27:41;101021.19;;;13.53;90.87
21781;BME280;52576;53.614;9.894;2023-07-20T04:29:44;101022.16;;;13.52;90.64
21781;BME280;52576;53.614;9.894;2023-07-20T04:31:47;101021.19;;;13.53;90.74
21781;BME280;52576;53.614;9.894;2023-07-20T04:33:51;101029.00;;;13.54;90.84
21781;BME280;52576;53.614;9.894;2023-07-20T04:35:55;101024.56;;;13.55;90.89
21781;BME280;52576;53.614;9.894;2023-07-20T04:38:02;101024.56;;;13.55;90.96
21781;BME280;52576;53.614;9.894;2023-07-20T04:40:06;101028.75;;;13.57;91.00
21781;BME280;52576;53.614;9.894;2023-07-20T04:42:10;101029.59;;;13.58;90.79
21781;BME280;52576;53.614;9.894;2023-07-20T04:44:13;101032.13;;;13.59;90.85
21781;BME280;52576;53.614;9.894;2023-07-20T04:46:16;101026.75;;;13.61;90.81
21781;BME280;52576;53.614;9.894;2023-07-20T04:48:21;101026.63;;;13.63;91.12
21781;BME280;52576;53.614;9.894;2023-07-20T04:50:27;101023.88;;;13.64;91.06
21781;BME280;52576;53.614;9.894;2023-07-20T04:52:31;101022.94;;;13.65;90.92
21781;BME280;52576;53.614;9.894;2023-07-20T04:54:47;101017.53;;;13.67;91.16
21781;BME280;52576;53.614;9.894;2023-07-20T04:56:50;101025.34;;;13.68;91.02
21781;BME280;52576;53.614;9.894;2023-07-20T04:58:54;101023.41;;;13.70;91.02
21781;BME280;52576;53.614;9.894;2023-07-20T05:00:57;101024.16;;;13.72;91.14
21781;BME280;52576;53.614;9.894;2023-07-20T05:03:01;101027.50;;;13.74;91.23
21781;BME280;52576;53.614;9.894;2023-07-20T05:05:07;101020.31;;;13.76;91.09
21781;BME280;52576;53.614;9.894;2023-07-20T05:07:10;101027.97;;;13.79;91.04
21781;BME280;52576;53.614;9.894;2023-07-20T05:09:15;101022.47;;;13.82;90.90
21781;BME280;52576;53.614;9.894;2023-07-20T05:11:18;101028.47;;;13.84;90.74
21781;BME280;52576;53.614;9.894;2023-07-20T05:13:21;101024.75;;;13.87;90.75
21781;BME280;52576;53.614;9.894;2023-07-20T05:15:24;101026.31;;;13.89;91.07
21781;BME280;52576;53.614;9.894;2023-07-20T05:17:29;101022.63;;;13.92;90.89
21781;BME280;52576;53.614;9.894;2023-07-20T05:19:32;101017.13;;;13.95;91.09
21781;BME280;52576;53.614;9.894;2023-07-20T05:21:35;101021.31;;;13.98;90.81
21781;BME280;52576;53.614;9.894;2023-07-20T05:23:38;101028.03;;;14.02;90.73
21781;BME280;52576;53.614;9.894;2023-07-20T05:25:43;101020.81;;;14.04;90.84
21781;BME280;52576;53.614;9.894;2023-07-20T05:27:46;101023.09;;;14.08;90.76
21781;BME280;52576;53.614;9.894;2023-07-20T05:29:49;101026.47;;;14.10;90.87
21781;BME280;52576;53.614;9.894;2023-07-20T05:31:52;101025.38;;;14.13;90.54
21781;BME280;52576;53.614;9.894;2023-07-20T05:33:55;101027.66;;;14.17;90.39
21781;BME280;52576;53.614;9.894;2023-07-20T05:35:57;101028.28;;;14.21;90.59
21781;BME280;52576;53.614;9.894;2023-07-20T05:38:00;101023.50;;;14.26;90.48
21781;BME280;52576;53.614;9.894;2023-07-20T05:40:05;101022.25;;;14.30;90.23
21781;BME280;52576;53.614;9.894;2023-07-20T05:42:09;101018.44;;;14.34;90.47
21781;BME280;52576;53.614;9.894;2023-07-20T05:44:12;101024.31;;;14.38;90.10
21781;BME280;52576;53.614;9.894;2023-07-20T05:46:15;101021.47;;;14.41;89.86
21781;BME280;52576;53.614;9.894;2023-07-20T05:48:19;101031.78;;;14.44;90.02
21781;BME280;52576;53.614;9.894;2023-07-20T05:50:22;101020.88;;;14.48;89.33
21781;BME280;52576;53.614;9.894;2023-07-20T05:52:25;101024.22;;;14.50;89.29
21781;BME280;52576;53.614;9.894;2023-07-20T05:54:28;101028.31;;;14.54;89.04
21781;BME280;52576;53.614;9.894;2023-07-20T05:56:31;101029.00;;;14.56;89.18
21781;BME280;52576;53.614;9.894;2023-07-20T05:58:35;101030.44;;;14.60;88.50
21781;BME280;52576;53.614;9.894;2023-07-20T06:00:38;101030.44;;;14.60;88.19
21781;BME280;52576;53.614;9.894;2023-07-20T06:02:41;101032.09;;;14.62;88.17
21781;BME280;52576;53.614;9.894;2023-07-20T06:04:45;101028.28;;;14.66;88.12
21781;BME280;52576;53.614;9.894;2023-07-20T06:06:49;101028.03;;;14.69;87.57
21781;BME280;52576;53.614;9.894;2023-07-20T06:08:51;101032.22;;;14.71;87.40
21781;BME280;52576;53.614;9.894;2023-07-20T06:10:54;101033.06;;;14.72;86.83
21781;BME280;52576;53.614;9.894;2023-07-20T06:12:58;101036.41;;;14.74;86.59
21781;BME280;52576;53.614;9.894;2023-07-20T06:15:04;101036.91;;;14.79;86.55
21781;BME280;52576;53.614;9.894;2023-07-20T06:17:07;101036.38;;;14.85;86.69
21781;BME280;52576;53.614;9.894;2023-07-20T06:19:10;101034.94;;;14.92;86.42
21781;BME280;52576;53.614;9.894;2023-07-20T06:21:14;101035.88;;;15.02;85.95
21781;BME280;52576;53.614;9.894;2023-07-20T06:23:17;101038.72;;;15.10;85.74
21781;BME280;52576;53.614;9.894;2023-07-20T06:25:20;101039.66;;;15.20;85.81
21781;BME280;52576;53.614;9.894;2023-07-20T06:27:23;101048.75;;;15.27;85.50
21781;BME280;52576;53.614;9.894;2023-07-20T06:29:26;101038.38;;;15.36;84.81
21781;BME280;52576;53.614;9.894;2023-07-20T06:31:31;101043.88;;;15.44;84.28
21781;BME280;52576;53.614;9.894;2023-07-20T06:33:34;101046.84;;;15.50;83.69
21781;BME280;52576;53.614;9.894;2023-07-20T06:35:37;101043.00;;;15.54;83.49
21781;BME280;52576;53.614;9.894;2023-07-20T06:37:40;101048.91;;;15.58;82.91
21781;BME280;52576;53.614;9.894;2023-07-20T06:39:42;101047.66;;;15.62;82.37
21781;BME280;52576;53.614;9.894;2023-07-20T06:41:48;101039.22;;;15.68;82.67
21781;BME280;52576;53.614;9.894;2023-07-20T06:43:54;101044.00;;;15.74;81.92
21781;BME280;52576;53.614;9.894;2023-07-20T06:45:59;101041.81;;;15.79;80.78
21781;BME280;52576;53.614;9.894;2023-07-20T06:48:04;101044.31;;;15.81;79.58
21781;BME280;52576;53.614;9.894;2023-07-20T06:50:08;101048.78;;;15.80;79.70
21781;BME280;52576;53.614;9.894;2023-07-20T06:52:18;101055.72;;;15.81;79.82
21781;BME280;52576;53.614;9.894;2023-07-20T06:54:20;101044.91;;;15.84;79.48
21781;BME280;52576;53.614;9.894;2023-07-20T06:56:24;101054.09;;;15.90;78.96
21781;BME280;52576;53.614;9.894;2023-07-20T06:58:30;101044.09;;;15.93;78.03
21781;BME280;52576;53.614;9.894;2023-07-20T07:00:33;101043.84;;;15.97;77.80
21781;BME280;52576;53.614;9.894;2023-07-20T07:02:36;101041.66;;;16.02;77.63
21781;BME280;52576;53.614;9.894;2023-07-20T07:04:41;101040.44;;;16.06;77.23
21781;BME280;52576;53.614;9.894;2023-07-20T07:06:44;101037.53;;;16.09;75.82
21781;BME280;52576;53.614;9.894;2023-07-20T07:08:47;101030.97;;;16.13;75.26
21781;BME280;52576;53.614;9.894;2023-07-20T07:10:50;101033.09;;;16.19;75.76
21781;BME280;52576;53.614;9.894;2023-07-20T07:12:53;101036.91;;;16.26;75.22
21781;BME280;52576;53.614;9.894;2023-07-20T07:14:56;101028.19;;;16.35;74.83
21781;BME280;52576;53.614;9.894;2023-07-20T07:16:59;101035.75;;;16.49;73.97
21781;BME280;52576;53.614;9.894;2023-07-20T07:19:06;101029.81;;;16.67;73.40
21781;BME280;52576;53.614;9.894;2023-07-20T07:21:11;101034.03;;;16.79;71.89
21781;BME280;52576;53.614;9.894;2023-07-20T07:23:14;101037.84;;;16.86;71.29
21781;BME280;52576;53.614;9.894;2023-07-20T07:25:18;101030.88;;;16.85;71.24
21781;BME280;52576;53.614;9.894;2023-07-20T07:27:24;101042.00;;;16.79;71.41
21781;BME280;52576;53.614;9.894;2023-07-20T07:29:27;101040.97;;;16.70;70.71
21781;BME280;52576;53.614;9.894;2023-07-20T07:31:33;101043.84;;;16.57;70.41
21781;BME280;52576;53.614;9.894;2023-07-20T07:33:37;101048.53;;;16.44;70.53
21781;BME280;52576;53.614;9.894;2023-07-20T07:35:40;101050.19;;;16.36;70.85
21781;BME280;52576;53.614;9.894;2023-07-20T07:37:44;101046.00;;;16.33;70.68
21781;BME280;52576;53.614;9.894;2023-07-20T07:40:08;101047.66;;;16.34;70.54
21781;BME280;52576;53.614;9.894;2023-07-20T07:42:11;101044.91;;;16.36;70.58
21781;BME280;52576;53.614;9.894;2023-07-20T07:44:14;101044.06;;;16.45;70.63
21781;BME280;52576;53.614;9.894;2023-07-20T07:46:17;101045.53;;;16.58;70.89
21781;BME280;52576;53.614;9.894;2023-07-20T07:48:20;101044.91;;;16.76;69.75
21781;BME280;52576;53.614;9.894;2023-07-20T07:50:23;101050.94;;;16.87;68.79
21781;BME280;52576;53.614;9.894;2023-07-20T07:52:26;101044.50;;;16.90;68.95
21781;BME280;52576;53.614;9.894;2023-07-20T07:54:31;101060.38;;;16.90;68.37
21781;BME280;52576;53.614;9.894;2023-07-20T07:56:34;101059.00;;;16.86;68.56
21781;BME280;52576;53.614;9.894;2023-07-20T07:58:37;101067.94;;;16.85;69.16
21781;BME280;52576;53.614;9.894;2023-07-20T08:00:40;101055.66;;;16.84;68.59
21781;BME280;52576;53.614;9.894;2023-07-20T08:02:45;101058.31;;;16.84;67.93
21781;BME280;52576;53.614;9.894;2023-07-20T08:04:50;101052.19;;;16.93;67.09
21781;BME280;52576;53.614;9.894;2023-07-20T08:06:54;101066.28;;;17.03;66.62
21781;BME280;52576;53.614;9.894;2023-07-20T08:08:57;101054.03;;;17.12;65.98
21781;BME280;52576;53.614;9.894;2023-07-20T08:11:01;101064.38;;;17.15;65.14
21781;BME280;52576;53.614;9.894;2023-07-20T08:13:08;101059.75;;;17.17;65.30
21781;BME280;52576;53.614;9.894;2023-07-20T08:15:11;101056.25;;;17.16;65.05
21781;BME280;52576;53.614;9.894;2023-07-20T08:17:16;101055.72;;;17.13;65.18
21781;BME280;52576;53.614;9.894;2023-07-20T08:19:20;101052.94;;;17.14;65.30
21781;BME280;52576;53.614;9.894;2023-07-20T08:21:23;101054.31;;;17.18;64.88
21781;BME280;52576;53.614;9.894;2023-07-20T08:23:26;101061.00;;;17.22;64.82
21781;BME280;52576;53.614;9.894;2023-07-20T08:25:30;101057.09;;;17.26;63.45
21781;BME280;52576;53.614;9.894;2023-07-20T08:27:35;101047.78;;;17.32;63.81
21781;BME280;52576;53.614;9.894;2023-07-20T08:29:38;101054.72;;;17.43;64.13
21781;BME280;52576;53.614;9.894;2023-07-20T08:31:40;101053.47;;;17.56;63.65
21781;BME280;52576;53.614;9.894;2023-07-20T08:33:43;101053.53;;;17.66;63.23
21781;BME280;52576;53.614;9.894;2023-07-20T08:35:46;101054.19;;;17.68;63.32
21781;BME280;52576;53.614;9.894;2023-07-20T08:37:49;101071.06;;;17.67;62.98
21781;BME280;52576;53.614;9.894;2023-07-20T08:39:52;101076.22;;;17.59;63.94
21781;BME280;52576;53.614;9.894;2023-07-20T08:41:56;101071.06;;;17.48;64.42
21781;BME280;52576;53.614;9.894;2023-07-20T08:44:04;101075.94;;;17.33;64.80
21781;BME280;52576;53.614;9.894;2023-07-20T08:46:10;101071.59;;;17.22;65.39
21781;BME280;52576;53.614;9.894;2023-07-20T08:48:15;101077.75;;;17.13;65.93
21781;BME280;52576;53.614;9.894;2023-07-20T08:50:19;101073.00;;;17.07;66.60
21781;BME280;52576;53.614;9.894;2023-07-20T08:52:23;101070.34;;;17.07;66.59
21781;BME280;52576;53.614;9.894;2023-07-20T08:54:30;101070.78;;;17.12;67.21
21781;BME280;52576;53.614;9.894;2023-07-20T08:56:34;101067.41;;;17.20;67.08
21781;BME280;52576;53.614;9.894;2023-07-20T08:58:37;101065.75;;;17.28;67.41
21781;BME280;52576;53.614;9.894;2023-07-20T09:00:43;101069.97;;;17.41;67.32
21781;BME280;52576;53.614;9.894;2023-07-20T09:02:49;101071.91;;;17.58;66.90
21781;BME280;52576;53.614;9.894;2023-07-20T09:04:53;101065.22;;;17.73;66.48
21781;BME280;52576;53.614;9.894;2023-07-20T09:06:57;101063.41;;;17.83;65.59
21781;BME280;52576;53.614;9.894;2023-07-20T09:09:00;101064.78;;;17.87;65.10
21781;BME280;52576;53.614;9.894;2023-07-20T09:11:03;101073.16;;;17.92;64.78
21781;BME280;52576;53.614;9.894;2023-07-20T09:13:07;101070.75;;;17.99;63.54
21781;BME280;52576;53.614;9.894;2023-07-20T09:15:12;101084.84;;;18.09;62.42
21781;BME280;52576;53.614;9.894;2023-07-20T09:17:16;101108.16;;;18.06;63.51
21781;BME280;52576;53.614;9.894;2023-07-20T09:19:21;101094.22;;;17.75;64.70
21781;BME280;52576;53.614;9.894;2023-07-20T09:21:28;101103.97;;;17.36;66.84
21781;BME280;52576;53.614;9.894;2023-07-20T09:23:32;101106.28;;;17.00;67.68
21781;BME280;52576;53.614;9.894;2023-07-20T09:25:36;101108.25;;;16.68;68.01
21781;BME280;52576;53.614;9.894;2023-07-20T09:27:39;101110.59;;;16.40;69.80
21781;BME280;52576;53.614;9.894;2023-07-20T09:29:48;101103.81;;;16.17;71.04
21781;BME280;52576;53.614;9.894;2023-07-20T09:31:59;101111.63;;;15.98;71.75
21781;BME280;52576;53.614;9.894;2023-07-20T09:34:04;101107.50;;;15.84;72.84
21781;BME280;52576;53.614;9.894;2023-07-20T09:36:09;101105.94;;;15.81;73.81
21781;BME280;52576;53.614;9.894;2023-07-20T09:38:33;101108.59;;;15.81;73.08
21781;BME280;52576;53.614;9.894;2023-07-20T09:40:57;101104.69;;;15.85;73.26
21781;BME280;52576;53.614;9.894;2023-07-20T09:43:02;101099.75;;;15.92;73.52
21781;BME280;52576;53.614;9.894;2023-07-20T09:45:10;101100.66;;;16.02;73.68
21781;BME280;52576;53.614;9.894;2023-07-20T09:47:12;101092.78;;;16.12;73.19
21781;BME280;52576;53.614;9.894;2023-07-20T09:49:17;101084.31;;;16.18;72.29
21781;BME280;52576;53.614;9.894;2023-07-20T09:51:23;101085.47;;;16.25;71.64
21781;BME280;52576;53.614;9.894;2023-07-20T09:53:27;101087.47;;;16.33;71.82
21781;BME280;52576;53.614;9.894;2023-07-20T09:55:31;101085.56;;;16.44;72.55
21781;BME280;52576;53.614;9.894;2023-07-20T09:57:35;101084.25;;;16.59;72.13
21781;BME280;52576;53.614;9.894;2023-07-20T09:59:39;101085.31;;;16.78;71.84
21781;BME280;52576;53.614;9.894;2023-07-20T10:01:41;101084.91;;;16.92;71.00
21781;BME280;52576;53.614;9.894;2023-07-20T10:03:46;101088.88;;;17.07;70.78
21781;BME280;52576;53.614;9.894;2023-07-20T10:05:55;101095.88;;;17.27;69.77
21781;BME280;52576;53.614;9.894;2023-07-20T10:08:00;101085.28;;;17.47;67.88
21781;BME280;52576;53.614;9.894;2023-07-20T10:10:09;101080.28;;;17.63;66.58
21781;BME280;52576;53.614;9.894;2023-07-20T10:12:15;101077.22;;;17.77;65.29
21781;BME280;52576;53.614;9.894;2023-07-20T10:14:20;101074.81;;;17.93;65.91
21781;BME280;52576;53.614;9.894;2023-07-20T10:16:27;101082.19;;;18.09;64.84
21781;BME280;52576;53.614;9.894;2023-07-20T10:18:35;101070.16;;;18.15;63.75
21781;BME280;52576;53.614;9.894;2023-07-20T10:20:41;101073.09;;;18.12;63.80
21781;BME280;52576;53.614;9.894;2023-07-20T10:22:52;101093.91;;;18.07;63.29
21781;BME280;52576;53.614;9.894;2023-07-20T10:24:55;101084.16;;;17.97;62.85
21781;BME280;52576;53.614;9.894;2023-07-20T10:27:01;101089.72;;;17.94;62.35
21781;BME280;52576;53.614;9.894;2023-07-20T10:29:04;101084.16;;;17.97;61.83
21781;BME280;52576;53.614;9.894;2023-07-20T10:31:09;101078.00;;;18.07;61.38
21781;BME280;52576;53.614;9.894;2023-07-20T10:33:13;101072.38;;;18.19;61.03
21781;BME280;52576;53.614;9.894;2023-07-20T10:35:18;101074.56;;;18.34;60.33
21781;BME280;52576;53.614;9.894;2023-07-20T10:37:51;101064.69;;;18.53;59.93
21781;BME280;52576;53.614;9.894;2023-07-20T10:39:55;101082.56;;;18.71;59.33
21781;BME280;52576;53.614;9.894;2023-07-20T10:42:02;101087.88;;;18.71;59.59
21781;BME280;52576;53.614;9.894;2023-07-20T10:44:07;101079.25;;;18.49;60.38
21781;BME280;52576;53.614;9.894;2023-07-20T10:46:11;101088.84;;;18.23;60.85
21781;BME280;52576;53.614;9.894;2023-07-20T10:48:17;101082.34;;;17.98;60.91
21781;BME280;52576;53.614;9.894;2023-07-20T10:50:21;101091.44;;;17.86;61.71
21781;BME280;52576;53.614;9.894;2023-07-20T10:52:25;101082.38;;;17.88;61.41
21781;BME280;52576;53.614;9.894;2023-07-20T10:54:46;101078.56;;;18.01;60.54